Terminal Aerodrome Forecast
Issued by NWS

Home | Current Version | Previous Version | Text Only | Print | Product List | Glossary On
Versions: 1 2 3 4 5 6 7 8 9 10 11 12 13 14 15 16 17 18 19 20 21 22 23 24 25 26 27 28 29 30 31 32 33 34 35 36 37 38 39 40 41 42 43 44
000
FTUS43 KGRR 170540
TAFBTL
TAF
KBTL 170540Z 1706/1806 12005KT P6SM SCT200
     FM171900 18006KT P6SM BKN200
     FM172200 16005KT P6SM OVC015
     FM172300 16005KT 5SM BR VCSH OVC015
     FM180300 17004KT 6SM BR OVC050=

USA.gov is the U.S. government's official web portal to all federal, state and local government web resources and services.